Petroleum, Indiana
Current Conditions -  °F | °C
As of 6:55 PM on Wednesday 22 Oct 2014 (Local Time) from KHHG Reporting Station
Clear Clear  
Wind Chill: 47°   Ceiling: Unl
Heat Index: 47°   Visibility: 10mi
Dew Point: 40°   Wind: 3mph
Humidity: 78%   Direction: 90°E
Pressure: 30.28"   Gusts: NA
Location:  40.61°N, 85.15°W
Report Text: KHHG 222255Z AUTO 09003KT 10SM CLR 08/04 A3028 RMK AO2 T00810044
Loading
Personal Weather Stations






























Interactive Weather Map
Tropical Storm Tracking
New forecast layout! Learn more

10-Day Weather Forecast

Advertisements
Track Severe Weather on mobile